sensor_id;sensor_type;location;lat;lon;timestamp;P1;durP1;ratioP1;P2;durP2;ratioP2
74459;SDS011;62902;48.854;9.292;2023-07-13T00:01:44;496.00;;;185.68;;
74459;SDS011;62902;48.854;9.292;2023-07-13T00:04:13;497.30;;;183.38;;
74459;SDS011;62902;48.854;9.292;2023-07-13T00:06:40;495.67;;;184.77;;
74459;SDS011;62902;48.854;9.292;2023-07-13T00:09:11;499.73;;;182.68;;
74459;SDS011;62902;48.854;9.292;2023-07-13T00:11:39;496.08;;;184.90;;
74459;SDS011;62902;48.854;9.292;2023-07-13T00:14:07;498.77;;;182.10;;
74459;SDS011;62902;48.854;9.292;2023-07-13T00:16:34;502.95;;;180.18;;
74459;SDS011;62902;48.854;9.292;2023-07-13T00:21:27;497.38;;;185.32;;
74459;SDS011;62902;48.854;9.292;2023-07-13T00:23:54;491.23;;;183.02;;
74459;SDS011;62902;48.854;9.292;2023-07-13T00:26:21;502.15;;;179.45;;
74459;SDS011;62902;48.854;9.292;2023-07-13T00:28:48;502.45;;;174.07;;
74459;SDS011;62902;48.854;9.292;2023-07-13T00:31:14;505.90;;;177.07;;
74459;SDS011;62902;48.854;9.292;2023-07-13T00:33:41;499.65;;;179.40;;
74459;SDS011;62902;48.854;9.292;2023-07-13T00:36:08;501.90;;;181.15;;
74459;SDS011;62902;48.854;9.292;2023-07-13T00:38:36;497.60;;;180.93;;
74459;SDS011;62902;48.854;9.292;2023-07-13T00:41:03;489.17;;;182.57;;
74459;SDS011;62902;48.854;9.292;2023-07-13T00:43:31;497.15;;;182.32;;
74459;SDS011;62902;48.854;9.292;2023-07-13T00:48:29;481.45;;;195.20;;
74459;SDS011;62902;48.854;9.292;2023-07-13T00:50:58;507.10;;;198.73;;
74459;SDS011;62902;48.854;9.292;2023-07-13T00:53:27;486.67;;;184.18;;
74459;SDS011;62902;48.854;9.292;2023-07-13T00:55:56;491.85;;;184.07;;
74459;SDS011;62902;48.854;9.292;2023-07-13T00:58:24;492.50;;;186.18;;
74459;SDS011;62902;48.854;9.292;2023-07-13T01:00:52;494.98;;;184.73;;
74459;SDS011;62902;48.854;9.292;2023-07-13T01:03:19;506.45;;;175.52;;
74459;SDS011;62902;48.854;9.292;2023-07-13T01:05:47;511.43;;;173.20;;
74459;SDS011;62902;48.854;9.292;2023-07-13T01:08:15;504.08;;;177.07;;
74459;SDS011;62902;48.854;9.292;2023-07-13T01:10:50;495.65;;;182.68;;
74459;SDS011;62902;48.854;9.292;2023-07-13T01:13:17;473.20;;;194.95;;
74459;SDS011;62902;48.854;9.292;2023-07-13T01:15:46;520.20;;;183.68;;
74459;SDS011;62902;48.854;9.292;2023-07-13T01:18:15;500.05;;;185.02;;
74459;SDS011;62902;48.854;9.292;2023-07-13T01:20:54;507.63;;;174.90;;
74459;SDS011;62902;48.854;9.292;2023-07-13T01:23:26;499.30;;;180.32;;
74459;SDS011;62902;48.854;9.292;2023-07-13T01:25:54;494.60;;;183.82;;
74459;SDS011;62902;48.854;9.292;2023-07-13T01:28:22;501.17;;;182.82;;
74459;SDS011;62902;48.854;9.292;2023-07-13T01:30:49;483.57;;;194.10;;
74459;SDS011;62902;48.854;9.292;2023-07-13T01:33:17;521.73;;;180.33;;
74459;SDS011;62902;48.854;9.292;2023-07-13T01:35:44;509.93;;;174.33;;
74459;SDS011;62902;48.854;9.292;2023-07-13T01:38:15;515.00;;;191.20;;
74459;SDS011;62902;48.854;9.292;2023-07-13T01:40:45;496.40;;;181.90;;
74459;SDS011;62902;48.854;9.292;2023-07-13T01:43:12;500.40;;;181.73;;
74459;SDS011;62902;48.854;9.292;2023-07-13T01:45:39;500.83;;;184.05;;
74459;SDS011;62902;48.854;9.292;2023-07-13T01:48:06;501.08;;;176.50;;
74459;SDS011;62902;48.854;9.292;2023-07-13T01:50:35;477.03;;;183.70;;
74459;SDS011;62902;48.854;9.292;2023-07-13T01:53:03;482.43;;;203.70;;
74459;SDS011;62902;48.854;9.292;2023-07-13T01:55:29;503.42;;;193.52;;
74459;SDS011;62902;48.854;9.292;2023-07-13T01:57:56;504.00;;;196.00;;
74459;SDS011;62902;48.854;9.292;2023-07-13T02:00:23;488.67;;;181.80;;
74459;SDS011;62902;48.854;9.292;2023-07-13T02:02:51;486.13;;;188.38;;
74459;SDS011;62902;48.854;9.292;2023-07-13T02:05:18;482.15;;;201.75;;
74459;SDS011;62902;48.854;9.292;2023-07-13T02:07:46;479.10;;;181.38;;
74459;SDS011;62902;48.854;9.292;2023-07-13T02:10:13;501.38;;;188.23;;
74459;SDS011;62902;48.854;9.292;2023-07-13T02:12:40;492.20;;;176.68;;
74459;SDS011;62902;48.854;9.292;2023-07-13T02:15:07;486.85;;;176.55;;
74459;SDS011;62902;48.854;9.292;2023-07-13T02:17:35;477.47;;;180.33;;
74459;SDS011;62902;48.854;9.292;2023-07-13T02:20:02;495.10;;;192.70;;
74459;SDS011;62902;48.854;9.292;2023-07-13T02:22:31;489.15;;;182.43;;
74459;SDS011;62902;48.854;9.292;2023-07-13T02:24:58;484.63;;;184.45;;
74459;SDS011;62902;48.854;9.292;2023-07-13T02:27:24;481.50;;;183.27;;
74459;SDS011;62902;48.854;9.292;2023-07-13T02:29:51;488.17;;;182.75;;
74459;SDS011;62902;48.854;9.292;2023-07-13T02:32:20;500.63;;;181.27;;
74459;SDS011;62902;48.854;9.292;2023-07-13T02:34:47;500.17;;;170.90;;
74459;SDS011;62902;48.854;9.292;2023-07-13T02:37:13;499.45;;;173.18;;
74459;SDS011;62902;48.854;9.292;2023-07-13T02:39:40;497.73;;;174.88;;
74459;SDS011;62902;48.854;9.292;2023-07-13T02:42:07;499.25;;;175.10;;
74459;SDS011;62902;48.854;9.292;2023-07-13T02:44:34;495.98;;;177.55;;
74459;SDS011;62902;48.854;9.292;2023-07-13T02:47:00;488.10;;;172.82;;
74459;SDS011;62902;48.854;9.292;2023-07-13T02:49:28;487.73;;;177.43;;
74459;SDS011;62902;48.854;9.292;2023-07-13T02:51:55;493.33;;;174.05;;
74459;SDS011;62902;48.854;9.292;2023-07-13T02:54:21;496.60;;;182.38;;
74459;SDS011;62902;48.854;9.292;2023-07-13T02:56:48;523.30;;;172.52;;
74459;SDS011;62902;48.854;9.292;2023-07-13T02:59:15;501.97;;;166.47;;
74459;SDS011;62902;48.854;9.292;2023-07-13T03:01:42;498.35;;;172.68;;
74459;SDS011;62902;48.854;9.292;2023-07-13T03:11:32;471.30;;;184.80;;
74459;SDS011;62902;48.854;9.292;2023-07-13T03:14:07;482.20;;;198.45;;
74459;SDS011;62902;48.854;9.292;2023-07-13T03:16:36;516.38;;;180.27;;
74459;SDS011;62902;48.854;9.292;2023-07-13T03:19:03;485.63;;;177.40;;
74459;SDS011;62902;48.854;9.292;2023-07-13T03:21:29;439.60;;;184.20;;
74459;SDS011;62902;48.854;9.292;2023-07-13T03:23:56;429.73;;;252.37;;
74459;SDS011;62902;48.854;9.292;2023-07-13T03:26:23;447.10;;;230.23;;
74459;SDS011;62902;48.854;9.292;2023-07-13T03:28:50;481.20;;;199.57;;
74459;SDS011;62902;48.854;9.292;2023-07-13T03:31:21;382.60;;;243.85;;
74459;SDS011;62902;48.854;9.292;2023-07-13T03:33:50;322.48;;;174.82;;
74459;SDS011;62902;48.854;9.292;2023-07-13T03:36:19;269.90;;;60.85;;
74459;SDS011;62902;48.854;9.292;2023-07-13T03:38:51;386.15;;;205.30;;
74459;SDS011;62902;48.854;9.292;2023-07-13T03:41:23;480.27;;;192.50;;
74459;SDS011;62902;48.854;9.292;2023-07-13T03:43:52;477.88;;;192.02;;
74459;SDS011;62902;48.854;9.292;2023-07-13T03:46:21;494.83;;;181.38;;
74459;SDS011;62902;48.854;9.292;2023-07-13T03:48:47;515.20;;;159.75;;
74459;SDS011;62902;48.854;9.292;2023-07-13T03:51:15;465.63;;;207.37;;
74459;SDS011;62902;48.854;9.292;2023-07-13T03:53:43;410.20;;;253.93;;
74459;SDS011;62902;48.854;9.292;2023-07-13T03:56:13;492.70;;;185.98;;
74459;SDS011;62902;48.854;9.292;2023-07-13T03:58:42;464.90;;;216.05;;
74459;SDS011;62902;48.854;9.292;2023-07-13T04:01:15;517.25;;;156.50;;
74459;SDS011;62902;48.854;9.292;2023-07-13T04:03:43;495.38;;;178.70;;
74459;SDS011;62902;48.854;9.292;2023-07-13T04:06:17;516.35;;;169.25;;
74459;SDS011;62902;48.854;9.292;2023-07-13T04:08:49;479.40;;;172.70;;
74459;SDS011;62902;48.854;9.292;2023-07-13T04:11:21;511.20;;;174.70;;
74459;SDS011;62902;48.854;9.292;2023-07-13T04:13:49;481.13;;;169.13;;
74459;SDS011;62902;48.854;9.292;2023-07-13T04:16:16;521.83;;;169.53;;
74459;SDS011;62902;48.854;9.292;2023-07-13T04:18:44;504.47;;;164.63;;
74459;SDS011;62902;48.854;9.292;2023-07-13T04:21:12;499.05;;;165.38;;
74459;SDS011;62902;48.854;9.292;2023-07-13T04:23:39;487.75;;;169.38;;
74459;SDS011;62902;48.854;9.292;2023-07-13T04:26:06;500.70;;;166.82;;
74459;SDS011;62902;48.854;9.292;2023-07-13T04:28:33;498.42;;;170.77;;
74459;SDS011;62902;48.854;9.292;2023-07-13T04:31:00;507.07;;;162.57;;
74459;SDS011;62902;48.854;9.292;2023-07-13T04:33:27;482.05;;;196.70;;
74459;SDS011;62902;48.854;9.292;2023-07-13T04:35:54;437.97;;;232.87;;
74459;SDS011;62902;48.854;9.292;2023-07-13T04:38:23;420.58;;;223.77;;
74459;SDS011;62902;48.854;9.292;2023-07-13T04:40:51;481.80;;;193.60;;
74459;SDS011;62902;48.854;9.292;2023-07-13T04:43:18;483.05;;;172.90;;
74459;SDS011;62902;48.854;9.292;2023-07-13T04:45:45;524.90;;;163.85;;
74459;SDS011;62902;48.854;9.292;2023-07-13T04:48:12;487.52;;;167.80;;
74459;SDS011;62902;48.854;9.292;2023-07-13T04:50:39;483.65;;;167.00;;
74459;SDS011;62902;48.854;9.292;2023-07-13T04:53:05;470.50;;;176.20;;
74459;SDS011;62902;48.854;9.292;2023-07-13T04:55:32;515.85;;;168.75;;
74459;SDS011;62902;48.854;9.292;2023-07-13T04:57:59;480.40;;;171.40;;
74459;SDS011;62902;48.854;9.292;2023-07-13T05:00:26;477.60;;;170.90;;
74459;SDS011;62902;48.854;9.292;2023-07-13T05:02:56;426.00;;;232.77;;
74459;SDS011;62902;48.854;9.292;2023-07-13T05:05:24;460.53;;;207.17;;
74459;SDS011;62902;48.854;9.292;2023-07-13T05:07:52;453.90;;;211.95;;
74459;SDS011;62902;48.854;9.292;2023-07-13T05:10:19;478.57;;;192.93;;
74459;SDS011;62902;48.854;9.292;2023-07-13T05:12:46;475.55;;;192.05;;
74459;SDS011;62902;48.854;9.292;2023-07-13T05:15:13;468.63;;;198.90;;
74459;SDS011;62902;48.854;9.292;2023-07-13T05:17:40;475.40;;;194.60;;
74459;SDS011;62902;48.854;9.292;2023-07-13T05:20:08;405.53;;;268.20;;
74459;SDS011;62902;48.854;9.292;2023-07-13T05:22:35;434.30;;;228.95;;
74459;SDS011;62902;48.854;9.292;2023-07-13T05:25:04;483.05;;;166.93;;
74459;SDS011;62902;48.854;9.292;2023-07-13T05:27:32;483.50;;;166.00;;
74459;SDS011;62902;48.854;9.292;2023-07-13T05:32:26;466.20;;;182.20;;
74459;SDS011;62902;48.854;9.292;2023-07-13T05:34:53;436.93;;;233.07;;
74459;SDS011;62902;48.854;9.292;2023-07-13T05:37:19;392.65;;;247.38;;
74459;SDS011;62902;48.854;9.292;2023-07-13T05:39:46;396.75;;;276.70;;
74459;SDS011;62902;48.854;9.292;2023-07-13T05:42:13;406.25;;;279.25;;
74459;SDS011;62902;48.854;9.292;2023-07-13T05:44:39;433.13;;;259.17;;
74459;SDS011;62902;48.854;9.292;2023-07-13T05:47:06;500.73;;;185.60;;
74459;SDS011;62902;48.854;9.292;2023-07-13T05:52:00;488.08;;;176.30;;
74459;SDS011;62902;48.854;9.292;2023-07-13T05:54:27;483.13;;;178.43;;
74459;SDS011;62902;48.854;9.292;2023-07-13T05:56:54;484.75;;;178.32;;
74459;SDS011;62902;48.854;9.292;2023-07-13T05:59:20;485.55;;;179.02;;
74459;SDS011;62902;48.854;9.292;2023-07-13T06:01:47;487.95;;;176.32;;
74459;SDS011;62902;48.854;9.292;2023-07-13T06:04:15;486.88;;;175.32;;
74459;SDS011;62902;48.854;9.292;2023-07-13T06:06:41;477.87;;;176.73;;
74459;SDS011;62902;48.854;9.292;2023-07-13T06:09:08;491.87;;;188.43;;
74459;SDS011;62902;48.854;9.292;2023-07-13T06:11:34;477.50;;;177.30;;
74459;SDS011;62902;48.854;9.292;2023-07-13T06:14:01;384.92;;;260.48;;
74459;SDS011;62902;48.854;9.292;2023-07-13T06:16:28;418.80;;;268.25;;
74459;SDS011;62902;48.854;9.292;2023-07-13T06:18:54;421.30;;;275.30;;
74459;SDS011;62902;48.854;9.292;2023-07-13T06:21:21;388.25;;;281.30;;
74459;SDS011;62902;48.854;9.292;2023-07-13T06:23:49;415.25;;;278.55;;
74459;SDS011;62902;48.854;9.292;2023-07-13T06:26:17;466.95;;;225.15;;
74459;SDS011;62902;48.854;9.292;2023-07-13T06:28:44;446.55;;;245.50;;
74459;SDS011;62902;48.854;9.292;2023-07-13T06:31:12;460.10;;;233.13;;
74459;SDS011;62902;48.854;9.292;2023-07-13T06:33:39;458.60;;;240.13;;
74459;SDS011;62902;48.854;9.292;2023-07-13T06:36:07;477.30;;;180.20;;
74459;SDS011;62902;48.854;9.292;2023-07-13T06:38:34;415.50;;;275.57;;
74459;SDS011;62902;48.854;9.292;2023-07-13T06:41:01;361.43;;;242.77;;
74459;SDS011;62902;48.854;9.292;2023-07-13T06:43:28;371.20;;;206.70;;
74459;SDS011;62902;48.854;9.292;2023-07-13T06:45:56;434.90;;;266.30;;
74459;SDS011;62902;48.854;9.292;2023-07-13T06:48:22;402.80;;;284.70;;
74459;SDS011;62902;48.854;9.292;2023-07-13T06:50:49;395.43;;;270.53;;
74459;SDS011;62902;48.854;9.292;2023-07-13T06:53:17;399.35;;;282.35;;
74459;SDS011;62902;48.854;9.292;2023-07-13T06:55:45;361.87;;;193.97;;
74459;SDS011;62902;48.854;9.292;2023-07-13T06:58:12;275.70;;;56.00;;
74459;SDS011;62902;48.854;9.292;2023-07-13T07:00:39;282.70;;;63.77;;
74459;SDS011;62902;48.854;9.292;2023-07-13T07:03:06;301.33;;;98.00;;
74459;SDS011;62902;48.854;9.292;2023-07-13T07:05:33;376.00;;;258.00;;
74459;SDS011;62902;48.854;9.292;2023-07-13T07:08:00;484.10;;;215.80;;
74459;SDS011;62902;48.854;9.292;2023-07-13T07:10:28;335.17;;;161.07;;
74459;SDS011;62902;48.854;9.292;2023-07-13T07:12:55;405.83;;;278.90;;
74459;SDS011;62902;48.854;9.292;2023-07-13T07:15:22;421.15;;;277.85;;
74459;SDS011;62902;48.854;9.292;2023-07-13T07:17:49;333.00;;;157.20;;
74459;SDS011;62902;48.854;9.292;2023-07-13T07:20:15;404.10;;;278.00;;
74459;SDS011;62902;48.854;9.292;2023-07-13T07:22:42;421.30;;;272.75;;
74459;SDS011;62902;48.854;9.292;2023-07-13T07:25:09;446.95;;;261.30;;
74459;SDS011;62902;48.854;9.292;2023-07-13T07:27:35;478.35;;;196.85;;
74459;SDS011;62902;48.854;9.292;2023-07-13T07:30:05;455.40;;;252.65;;
74459;SDS011;62902;48.854;9.292;2023-07-13T07:32:35;454.27;;;258.90;;
74459;SDS011;62902;48.854;9.292;2023-07-13T07:35:05;448.60;;;266.17;;
74459;SDS011;62902;48.854;9.292;2023-07-13T07:37:32;460.63;;;250.00;;
74459;SDS011;62902;48.854;9.292;2023-07-13T07:40:01;447.60;;;262.45;;
74459;SDS011;62902;48.854;9.292;2023-07-13T07:42:32;442.90;;;267.75;;
74459;SDS011;62902;48.854;9.292;2023-07-13T07:44:59;427.85;;;274.55;;
74459;SDS011;62902;48.854;9.292;2023-07-13T07:47:27;448.35;;;264.35;;
74459;SDS011;62902;48.854;9.292;2023-07-13T07:49:54;438.73;;;274.47;;
74459;SDS011;62902;48.854;9.292;2023-07-13T07:52:20;439.25;;;272.10;;
74459;SDS011;62902;48.854;9.292;2023-07-13T07:54:47;428.70;;;280.90;;
74459;SDS011;62902;48.854;9.292;2023-07-13T07:57:17;430.95;;;278.25;;
74459;SDS011;62902;48.854;9.292;2023-07-13T08:00:04;465.80;;;247.60;;
74459;SDS011;62902;48.854;9.292;2023-07-13T08:02:39;455.90;;;260.17;;
74459;SDS011;62902;48.854;9.292;2023-07-13T08:05:27;436.75;;;271.25;;
74459;SDS011;62902;48.854;9.292;2023-07-13T08:07:57;451.43;;;265.07;;
74459;SDS011;62902;48.854;9.292;2023-07-13T08:10:24;437.65;;;282.85;;
74459;SDS011;62902;48.854;9.292;2023-07-13T08:12:51;436.10;;;282.70;;
74459;SDS011;62902;48.854;9.292;2023-07-13T08:15:20;299.60;;;89.60;;
74459;SDS011;62902;48.854;9.292;2023-07-13T08:17:47;342.95;;;162.80;;
74459;SDS011;62902;48.854;9.292;2023-07-13T08:20:15;324.95;;;128.55;;
74459;SDS011;62902;48.854;9.292;2023-07-13T08:22:42;417.07;;;251.43;;
74459;SDS011;62902;48.854;9.292;2023-07-13T08:25:08;426.65;;;282.85;;
74459;SDS011;62902;48.854;9.292;2023-07-13T08:27:35;435.20;;;284.00;;
74459;SDS011;62902;48.854;9.292;2023-07-13T08:30:02;471.95;;;252.95;;
74459;SDS011;62902;48.854;9.292;2023-07-13T08:32:29;446.07;;;281.63;;
74459;SDS011;62902;48.854;9.292;2023-07-13T08:34:56;466.35;;;221.85;;
74459;SDS011;62902;48.854;9.292;2023-07-13T08:37:22;481.33;;;200.93;;
74459;SDS011;62902;48.854;9.292;2023-07-13T08:39:49;472.30;;;246.10;;
74459;SDS011;62902;48.854;9.292;2023-07-13T08:44:57;484.10;;;240.60;;
74459;SDS011;62902;48.854;9.292;2023-07-13T08:47:32;474.88;;;258.27;;
74459;SDS011;62902;48.854;9.292;2023-07-13T08:50:02;409.03;;;279.97;;
74459;SDS011;62902;48.854;9.292;2023-07-13T08:54:59;305.50;;;100.10;;
74459;SDS011;62902;48.854;9.292;2023-07-13T08:57:31;336.58;;;134.75;;
74459;SDS011;62902;48.854;9.292;2023-07-13T08:59:59;463.00;;;293.40;;
74459;SDS011;62902;48.854;9.292;2023-07-13T09:02:34;462.83;;;290.97;;
74459;SDS011;62902;48.854;9.292;2023-07-13T09:05:27;471.43;;;276.40;;
74459;SDS011;62902;48.854;9.292;2023-07-13T09:08:02;466.50;;;287.40;;
74459;SDS011;62902;48.854;9.292;2023-07-13T09:10:37;444.95;;;302.45;;
74459;SDS011;62902;48.854;9.292;2023-07-13T09:15:50;418.47;;;299.13;;
74459;SDS011;62902;48.854;9.292;2023-07-13T09:18:28;422.60;;;302.30;;
74459;SDS011;62902;48.854;9.292;2023-07-13T09:20:59;306.70;;;74.75;;
74459;SDS011;62902;48.854;9.292;2023-07-13T09:23:29;466.30;;;276.75;;
74459;SDS011;62902;48.854;9.292;2023-07-13T09:25:59;472.73;;;268.53;;
74459;SDS011;62902;48.854;9.292;2023-07-13T09:28:29;474.47;;;270.73;;
74459;SDS011;62902;48.854;9.292;2023-07-13T09:31:03;472.17;;;271.73;;
74459;SDS011;62902;48.854;9.292;2023-07-13T09:33:32;476.65;;;268.65;;
74459;SDS011;62902;48.854;9.292;2023-07-13T09:36:01;475.30;;;264.10;;
74459;SDS011;62902;48.854;9.292;2023-07-13T09:38:38;484.70;;;247.40;;
74459;SDS011;62902;48.854;9.292;2023-07-13T09:41:27;494.95;;;227.70;;
74459;SDS011;62902;48.854;9.292;2023-07-13T09:44:10;477.55;;;229.10;;
74459;SDS011;62902;48.854;9.292;2023-07-13T09:46:45;475.05;;;230.55;;
74459;SDS011;62902;48.854;9.292;2023-07-13T09:49:27;474.80;;;226.40;;
74459;SDS011;62902;48.854;9.292;2023-07-13T09:51:59;476.35;;;226.10;;
74459;SDS011;62902;48.854;9.292;2023-07-13T09:54:29;482.85;;;217.75;;
74459;SDS011;62902;48.854;9.292;2023-07-13T09:56:56;487.35;;;205.80;;
74459;SDS011;62902;48.854;9.292;2023-07-13T09:59:26;489.92;;;238.18;;
74459;SDS011;62902;48.854;9.292;2023-07-13T10:02:00;481.60;;;222.50;;
74459;SDS011;62902;48.854;9.292;2023-07-13T10:04:31;482.80;;;210.80;;
74459;SDS011;62902;48.854;9.292;2023-07-13T10:07:09;503.98;;;217.85;;
74459;SDS011;62902;48.854;9.292;2023-07-13T10:09:54;509.80;;;212.70;;
74459;SDS011;62902;48.854;9.292;2023-07-13T10:12:22;516.40;;;211.33;;
74459;SDS011;62902;48.854;9.292;2023-07-13T10:14:51;490.30;;;201.40;;
74459;SDS011;62902;48.854;9.292;2023-07-13T10:17:38;515.40;;;210.23;;
74459;SDS011;62902;48.854;9.292;2023-07-13T10:20:06;499.03;;;197.87;;
74459;SDS011;62902;48.854;9.292;2023-07-13T10:25:22;493.15;;;202.15;;
74459;SDS011;62902;48.854;9.292;2023-07-13T10:27:55;508.00;;;213.30;;
74459;SDS011;62902;48.854;9.292;2023-07-13T10:30:27;507.75;;;217.90;;
74459;SDS011;62902;48.854;9.292;2023-07-13T10:33:01;500.67;;;199.70;;
74459;SDS011;62902;48.854;9.292;2023-07-13T10:35:29;518.43;;;209.97;;
74459;SDS011;62902;48.854;9.292;2023-07-13T10:38:01;491.70;;;205.60;;
74459;SDS011;62902;48.854;9.292;2023-07-13T10:40:34;510.65;;;217.65;;
74459;SDS011;62902;48.854;9.292;2023-07-13T10:43:04;486.50;;;210.30;;
74459;SDS011;62902;48.854;9.292;2023-07-13T10:45:39;504.30;;;221.00;;
74459;SDS011;62902;48.854;9.292;2023-07-13T10:48:06;483.85;;;221.95;;
74459;SDS011;62902;48.854;9.292;2023-07-13T10:50:43;485.65;;;213.95;;
74459;SDS011;62902;48.854;9.292;2023-07-13T10:53:18;485.85;;;207.45;;
74459;SDS011;62902;48.854;9.292;2023-07-13T10:58:28;498.27;;;229.50;;
74459;SDS011;62902;48.854;9.292;2023-07-13T11:03:35;483.15;;;221.10;;
74459;SDS011;62902;48.854;9.292;2023-07-13T11:06:47;485.40;;;218.00;;
74459;SDS011;62902;48.854;9.292;2023-07-13T11:08:56;485.85;;;213.25;;
74459;SDS011;62902;48.854;9.292;2023-07-13T11:14:02;464.43;;;293.33;;
74459;SDS011;62902;48.854;9.292;2023-07-13T11:16:42;459.50;;;295.95;;
74459;SDS011;62902;48.854;9.292;2023-07-13T11:22:09;488.10;;;255.20;;
74459;SDS011;62902;48.854;9.292;2023-07-13T11:24:52;365.00;;;187.95;;
74459;SDS011;62902;48.854;9.292;2023-07-13T11:27:38;397.30;;;250.00;;
74459;SDS011;62902;48.854;9.292;2023-07-13T11:32:51;488.10;;;260.40;;
74459;SDS011;62902;48.854;9.292;2023-07-13T11:35:51;490.20;;;216.30;;
74459;SDS011;62902;48.854;9.292;2023-07-13T11:38:38;489.45;;;210.80;;
74459;SDS011;62902;48.854;9.292;2023-07-13T11:41:13;503.70;;;221.50;;
74459;SDS011;62902;48.854;9.292;2023-07-13T11:43:43;495.60;;;195.90;;
74459;SDS011;62902;48.854;9.292;2023-07-13T11:46:21;497.70;;;227.20;;
74459;SDS011;62902;48.854;9.292;2023-07-13T11:48:52;509.70;;;216.75;;
74459;SDS011;62902;48.854;9.292;2023-07-13T11:51:21;466.90;;;274.95;;
74459;SDS011;62902;48.854;9.292;2023-07-13T11:53:50;444.97;;;307.67;;
74459;SDS011;62902;48.854;9.292;2023-07-13T11:56:19;458.93;;;289.47;;
74459;SDS011;62902;48.854;9.292;2023-07-13T11:58:50;440.53;;;300.37;;
74459;SDS011;62902;48.854;9.292;2023-07-13T12:01:22;442.77;;;306.05;;
74459;SDS011;62902;48.854;9.292;2023-07-13T12:03:51;478.95;;;273.45;;
74459;SDS011;62902;48.854;9.292;2023-07-13T12:09:11;439.90;;;306.30;;
74459;SDS011;62902;48.854;9.292;2023-07-13T12:11:40;484.40;;;262.03;;
74459;SDS011;62902;48.854;9.292;2023-07-13T12:14:12;482.00;;;267.85;;
74459;SDS011;62902;48.854;9.292;2023-07-13T12:16:42;481.00;;;269.70;;
74459;SDS011;62902;48.854;9.292;2023-07-13T12:19:16;450.70;;;300.25;;
74459;SDS011;62902;48.854;9.292;2023-07-13T12:21:43;476.85;;;267.00;;
74459;SDS011;62902;48.854;9.292;2023-07-13T12:24:14;509.05;;;222.63;;
74459;SDS011;62902;48.854;9.292;2023-07-13T12:26:41;495.30;;;205.40;;
74459;SDS011;62902;48.854;9.292;2023-07-13T12:29:10;503.00;;;220.50;;
74459;SDS011;62902;48.854;9.292;2023-07-13T12:34:11;493.85;;;200.00;;
74459;SDS011;62902;48.854;9.292;2023-07-13T12:39:33;488.70;;;203.25;;
74459;SDS011;62902;48.854;9.292;2023-07-13T12:44:39;513.92;;;211.68;;
74459;SDS011;62902;48.854;9.292;2023-07-13T12:47:09;498.00;;;195.33;;
74459;SDS011;62902;48.854;9.292;2023-07-13T12:49:43;492.25;;;241.20;;
74459;SDS011;62902;48.854;9.292;2023-07-13T12:52:15;483.35;;;220.55;;
74459;SDS011;62902;48.854;9.292;2023-07-13T12:54:54;487.90;;;211.30;;
74459;SDS011;62902;48.854;9.292;2023-07-13T12:57:31;487.60;;;208.45;;
74459;SDS011;62902;48.854;9.292;2023-07-13T12:59:58;503.13;;;223.80;;
74459;SDS011;62902;48.854;9.292;2023-07-13T13:02:34;497.27;;;201.30;;
74459;SDS011;62902;48.854;9.292;2023-07-13T13:05:01;502.50;;;225.50;;
74459;SDS011;62902;48.854;9.292;2023-07-13T13:07:30;489.80;;;216.10;;
74459;SDS011;62902;48.854;9.292;2023-07-13T13:09:57;475.93;;;231.27;;
74459;SDS011;62902;48.854;9.292;2023-07-13T13:12:24;472.77;;;275.97;;
74459;SDS011;62902;48.854;9.292;2023-07-13T13:14:52;468.40;;;281.60;;
74459;SDS011;62902;48.854;9.292;2023-07-13T13:17:21;486.55;;;251.30;;
74459;SDS011;62902;48.854;9.292;2023-07-13T13:19:51;309.02;;;77.43;;
74459;SDS011;62902;48.854;9.292;2023-07-13T13:22:21;398.30;;;255.10;;
74459;SDS011;62902;48.854;9.292;2023-07-13T13:24:48;337.25;;;130.10;;
74459;SDS011;62902;48.854;9.292;2023-07-13T13:27:19;418.38;;;226.15;;
74459;SDS011;62902;48.854;9.292;2023-07-13T13:29:47;479.20;;;259.67;;
74459;SDS011;62902;48.854;9.292;2023-07-13T13:32:17;504.80;;;219.90;;
74459;SDS011;62902;48.854;9.292;2023-07-13T13:34:45;493.65;;;231.30;;
74459;SDS011;62902;48.854;9.292;2023-07-13T13:37:16;493.60;;;233.35;;
74459;SDS011;62902;48.854;9.292;2023-07-13T13:39:44;497.45;;;230.40;;
74459;SDS011;62902;48.854;9.292;2023-07-13T13:42:23;492.87;;;242.93;;
74459;SDS011;62902;48.854;9.292;2023-07-13T13:44:51;488.40;;;213.40;;
74459;SDS011;62902;48.854;9.292;2023-07-13T13:47:31;488.55;;;211.35;;
74459;SDS011;62902;48.854;9.292;2023-07-13T13:49:59;491.60;;;208.00;;
74459;SDS011;62902;48.854;9.292;2023-07-13T13:52:27;486.20;;;246.30;;
74459;SDS011;62902;48.854;9.292;2023-07-13T13:54:54;419.25;;;299.55;;
74459;SDS011;62902;48.854;9.292;2023-07-13T13:57:23;481.40;;;270.17;;
74459;SDS011;62902;48.854;9.292;2023-07-13T13:59:51;482.33;;;272.00;;
74459;SDS011;62902;48.854;9.292;2023-07-13T14:02:23;486.90;;;251.65;;
74459;SDS011;62902;48.854;9.292;2023-07-13T14:04:53;495.77;;;240.55;;
74459;SDS011;62902;48.854;9.292;2023-07-13T14:07:23;493.27;;;241.67;;
74459;SDS011;62902;48.854;9.292;2023-07-13T14:09:50;486.30;;;256.63;;
74459;SDS011;62902;48.854;9.292;2023-07-13T14:12:16;464.65;;;289.75;;
74459;SDS011;62902;48.854;9.292;2023-07-13T14:14:43;455.30;;;288.20;;
74459;SDS011;62902;48.854;9.292;2023-07-13T14:17:24;476.00;;;273.10;;
74459;SDS011;62902;48.854;9.292;2023-07-13T14:19:52;425.10;;;300.30;;
74459;SDS011;62902;48.854;9.292;2023-07-13T14:22:26;430.20;;;302.20;;
74459;SDS011;62902;48.854;9.292;2023-07-13T14:24:53;472.85;;;280.55;;
74459;SDS011;62902;48.854;9.292;2023-07-13T14:27:21;295.30;;;62.13;;
74459;SDS011;62902;48.854;9.292;2023-07-13T14:29:48;396.15;;;267.60;;
74459;SDS011;62902;48.854;9.292;2023-07-13T14:32:15;349.80;;;157.80;;
74459;SDS011;62902;48.854;9.292;2023-07-13T14:34:42;375.07;;;214.33;;
74459;SDS011;62902;48.854;9.292;2023-07-13T14:37:12;490.20;;;258.83;;
74459;SDS011;62902;48.854;9.292;2023-07-13T14:39:41;488.80;;;219.65;;
74459;SDS011;62902;48.854;9.292;2023-07-13T14:42:10;487.35;;;219.60;;
74459;SDS011;62902;48.854;9.292;2023-07-13T14:44:37;489.85;;;219.05;;
74459;SDS011;62902;48.854;9.292;2023-07-13T14:47:05;492.75;;;212.50;;
74459;SDS011;62902;48.854;9.292;2023-07-13T14:49:33;495.60;;;202.85;;
74459;SDS011;62902;48.854;9.292;2023-07-13T14:52:05;484.20;;;256.30;;
74459;SDS011;62902;48.854;9.292;2023-07-13T14:54:37;477.07;;;275.87;;
74459;SDS011;62902;48.854;9.292;2023-07-13T14:57:10;482.60;;;267.95;;
74459;SDS011;62902;48.854;9.292;2023-07-13T14:59:38;490.30;;;248.10;;
74459;SDS011;62902;48.854;9.292;2023-07-13T15:02:12;481.33;;;222.43;;